Time;durP1;ratioP1;P1;durP2;ratioP2;P2;SDS_P1;SDS_P2;PMS_P1;PMS_P2;Temp;Humidity;BMP_temperature;BMP_pressure;BME280_temperature;BME280_humidity;BME280_pressure;Samples;Min_cycle;Max_cycle;Signal;HPM_P1;HPM_P2
2022/07/13 00:00:15;;;;;;;17.15;11.23;;;;;;;;;;5089681;28;20041;-67
2022/07/13 00:02:41;;;;;;;14.80;12.77;;;;;;;;;;5098882;28;20043;-69
2022/07/13 00:05:07;;;;;;;16.65;12.45;;;;;;;;;;5097752;28;20043;-67
2022/07/13 00:07:34;;;;;;;13.80;11.00;;;;;;;;;;5084178;28;20043;-67
2022/07/13 00:10:00;;;;;;;13.63;12.18;;;;;;;;;;5087419;28;20040;-67
2022/07/13 00:12:26;;;;;;;15.93;12.10;;;;;;;;;;5098754;28;20093;-67
2022/07/13 00:14:52;;;;;;;17.40;14.45;;;;;;;;;;5093764;28;20055;-67
2022/07/13 00:17:18;;;;;;;14.02;12.50;;;;;;;;;;5100459;28;20416;-67
2022/07/13 00:19:45;;;;;;;17.17;12.23;;;;;;;;;;5094928;28;20046;-67
2022/07/13 00:22:11;;;;;;;18.60;13.30;;;;;;;;;;5077549;28;20040;-66
2022/07/13 00:24:37;;;;;;;16.17;13.75;;;;;;;;;;5101420;28;20123;-67
2022/07/13 00:27:03;;;;;;;16.80;13.65;;;;;;;;;;5098255;28;20050;-67
2022/07/13 00:29:29;;;;;;;13.50;11.48;;;;;;;;;;5087729;28;20123;-70
2022/07/13 00:31:55;;;;;;;15.90;14.30;;;;;;;;;;5098404;28;20491;-67
2022/07/13 00:34:22;;;;;;;15.75;13.25;;;;;;;;;;5098671;28;20119;-67
2022/07/13 00:36:48;;;;;;;15.60;13.05;;;;;;;;;;5094693;28;20455;-68
2022/07/13 00:39:14;;;;;;;17.73;14.10;;;;;;;;;;5091538;28;20217;-67
2022/07/13 00:41:47;;;;;;;19.17;12.95;;;;;;;;;;5092007;28;20051;-67
2022/07/13 00:44:14;;;;;;;17.70;11.50;;;;;;;;;;5092531;28;20040;-67
2022/07/13 00:46:44;;;;;;;15.20;12.65;;;;;;;;;;5093126;28;20032;-68
2022/07/13 00:49:11;;;;;;;15.77;12.38;;;;;;;;;;5092589;28;20472;-67
2022/07/13 00:51:37;;;;;;;14.45;12.55;;;;;;;;;;5093500;28;20044;-67
2022/07/13 00:54:04;;;;;;;17.20;12.40;;;;;;;;;;5095210;28;20043;-68
2022/07/13 00:56:30;;;;;;;13.23;11.23;;;;;;;;;;5104501;27;20047;-67
2022/07/13 00:58:59;;;;;;;16.15;12.50;;;;;;;;;;5108053;27;20143;-67
2022/07/13 01:01:26;;;;;;;16.40;11.55;;;;;;;;;;5092511;28;20101;-67
2022/07/13 01:03:52;;;;;;;14.20;11.90;;;;;;;;;;5092794;28;20028;-67
2022/07/13 01:06:18;;;;;;;16.10;12.88;;;;;;;;;;5073738;28;20043;-67
2022/07/13 01:08:46;;;;;;;17.00;13.20;;;;;;;;;;5092163;28;20181;-67
2022/07/13 01:11:12;;;;;;;16.75;12.98;;;;;;;;;;5096796;28;20051;-67
2022/07/13 01:13:39;;;;;;;13.90;11.50;;;;;;;;;;5096329;28;20035;-66
2022/07/13 01:16:05;;;;;;;14.77;11.82;;;;;;;;;;5093116;28;20116;-67
2022/07/13 01:18:32;;;;;;;15.10;11.77;;;;;;;;;;5094454;28;20040;-67
2022/07/13 01:20:58;;;;;;;17.02;13.27;;;;;;;;;;5091126;28;20035;-67
2022/07/13 01:23:25;;;;;;;14.82;12.50;;;;;;;;;;5095410;28;20542;-67
2022/07/13 01:25:55;;;;;;;15.13;11.55;;;;;;;;;;5110567;27;20169;-67
2022/07/13 01:28:22;;;;;;;19.85;12.55;;;;;;;;;;5098776;28;20040;-67
2022/07/13 01:30:49;;;;;;;15.77;12.48;;;;;;;;;;5079893;28;20637;-68
2022/07/13 01:33:15;;;;;;;17.02;12.90;;;;;;;;;;5054378;28;20040;-66
2022/07/13 01:35:42;;;;;;;13.48;11.55;;;;;;;;;;5098066;28;20597;-67
2022/07/13 01:38:08;;;;;;;15.32;12.63;;;;;;;;;;5091461;28;20508;-68
2022/07/13 01:40:34;;;;;;;18.48;13.18;;;;;;;;;;5112501;27;20044;-68
2022/07/13 01:43:01;;;;;;;15.43;11.93;;;;;;;;;;5093497;28;20490;-68
2022/07/13 01:45:27;;;;;;;17.05;12.55;;;;;;;;;;5092517;28;20040;-68
2022/07/13 01:47:54;;;;;;;16.40;11.85;;;;;;;;;;5092488;28;20484;-68
2022/07/13 01:50:22;;;;;;;20.40;12.20;;;;;;;;;;5112108;27;20038;-68
2022/07/13 01:52:48;;;;;;;15.63;13.50;;;;;;;;;;5096643;28;20489;-68
2022/07/13 01:55:15;;;;;;;16.05;13.52;;;;;;;;;;5099278;28;20047;-69
2022/07/13 01:57:41;;;;;;;15.77;13.45;;;;;;;;;;5093471;28;20115;-68
2022/07/13 02:00:15;;;;;;;15.52;11.55;;;;;;;;;;5086464;28;20480;-69
2022/07/13 02:02:41;;;;;;;17.30;12.73;;;;;;;;;;5097877;28;20043;-68
2022/07/13 02:05:09;;;;;;;16.38;11.73;;;;;;;;;;5097041;28;20545;-68
2022/07/13 02:07:35;;;;;;;18.15;11.65;;;;;;;;;;5089764;28;20036;-68
2022/07/13 02:10:01;;;;;;;17.10;12.70;;;;;;;;;;5094106;28;20070;-69
2022/07/13 02:12:28;;;;;;;13.82;12.32;;;;;;;;;;5093486;28;20342;-68
2022/07/13 02:14:54;;;;;;;16.58;12.43;;;;;;;;;;5092629;28;20043;-69
2022/07/13 02:17:20;;;;;;;16.20;12.00;;;;;;;;;;5093619;28;20052;-68
2022/07/13 02:19:46;;;;;;;13.57;11.10;;;;;;;;;;5089818;28;20174;-68
2022/07/13 02:22:13;;;;;;;14.82;11.15;;;;;;;;;;5095325;28;20071;-69
2022/07/13 02:24:39;;;;;;;12.90;11.52;;;;;;;;;;5089702;28;20040;-68
2022/07/13 02:27:05;;;;;;;15.50;11.43;;;;;;;;;;5104524;27;20043;-69
2022/07/13 02:29:31;;;;;;;14.23;10.68;;;;;;;;;;5089984;28;20083;-68
2022/07/13 02:31:57;;;;;;;12.07;10.75;;;;;;;;;;5098609;28;20042;-69
2022/07/13 02:34:27;;;;;;;14.88;11.00;;;;;;;;;;5090842;28;20514;-68
2022/07/13 02:36:55;;;;;;;12.10;9.55;;;;;;;;;;5099274;27;20036;-68
2022/07/13 02:39:22;;;;;;;13.25;10.13;;;;;;;;;;5092627;28;20095;-68
2022/07/13 02:41:49;;;;;;;14.45;10.93;;;;;;;;;;5112183;27;20047;-68
2022/07/13 02:44:15;;;;;;;12.90;9.35;;;;;;;;;;5097495;28;20515;-68
2022/07/13 02:46:41;;;;;;;12.55;9.52;;;;;;;;;;5093523;28;20044;-68
2022/07/13 02:49:07;;;;;;;11.88;9.23;;;;;;;;;;5091109;28;20055;-69
2022/07/13 02:51:34;;;;;;;12.23;9.85;;;;;;;;;;5090376;28;20047;-68
2022/07/13 02:54:01;;;;;;;20.58;10.70;;;;;;;;;;5089531;28;20040;-69
2022/07/13 02:56:27;;;;;;;12.70;9.85;;;;;;;;;;5095829;28;20045;-68
2022/07/13 02:58:53;;;;;;;9.98;8.90;;;;;;;;;;5089807;28;20481;-68
2022/07/13 03:01:19;;;;;;;11.30;8.93;;;;;;;;;;5095575;28;20427;-69
2022/07/13 03:03:45;;;;;;;15.85;9.20;;;;;;;;;;5088312;28;20085;-68
2022/07/13 03:06:11;;;;;;;10.45;8.20;;;;;;;;;;5085114;28;20043;-69
2022/07/13 03:08:37;;;;;;;11.05;8.68;;;;;;;;;;5090603;28;20463;-69
2022/07/13 03:11:04;;;;;;;10.68;7.82;;;;;;;;;;5081550;28;20036;-68
2022/07/13 03:13:31;;;;;;;12.55;9.00;;;;;;;;;;5092782;28;20039;-68
2022/07/13 03:15:57;;;;;;;11.27;9.10;;;;;;;;;;5088229;28;20374;-68
2022/07/13 03:18:23;;;;;;;11.07;7.72;;;;;;;;;;5090568;28;20524;-68
2022/07/13 03:20:49;;;;;;;13.75;8.13;;;;;;;;;;5086932;28;20075;-68
2022/07/13 03:23:15;;;;;;;10.82;7.68;;;;;;;;;;5083284;28;20032;-68
2022/07/13 03:25:41;;;;;;;11.88;8.98;;;;;;;;;;5074472;28;20291;-69
2022/07/13 03:28:08;;;;;;;12.27;7.70;;;;;;;;;;5091998;28;20562;-69
2022/07/13 03:30:34;;;;;;;11.63;7.85;;;;;;;;;;5091051;28;20044;-69
2022/07/13 03:33:00;;;;;;;12.23;8.00;;;;;;;;;;5092502;28;20038;-68
2022/07/13 03:35:26;;;;;;;12.88;9.15;;;;;;;;;;5071863;28;20051;-68
2022/07/13 03:37:52;;;;;;;11.38;8.65;;;;;;;;;;5083899;28;20040;-68
2022/07/13 03:40:18;;;;;;;11.75;8.65;;;;;;;;;;5090791;28;20074;-68
2022/07/13 03:42:44;;;;;;;10.07;8.52;;;;;;;;;;5085331;28;20542;-68
2022/07/13 03:45:10;;;;;;;12.95;8.13;;;;;;;;;;5086410;28;20039;-68
2022/07/13 03:47:38;;;;;;;10.05;7.80;;;;;;;;;;5080427;28;20063;-68
2022/07/13 03:50:04;;;;;;;11.45;8.55;;;;;;;;;;5078439;28;20044;-68
2022/07/13 03:52:30;;;;;;;10.82;7.50;;;;;;;;;;5095479;28;20052;-68
2022/07/13 03:54:56;;;;;;;10.40;8.02;;;;;;;;;;5088265;28;20040;-68
2022/07/13 03:57:23;;;;;;;11.38;8.02;;;;;;;;;;5084015;28;20397;-69
2022/07/13 03:59:49;;;;;;;8.77;7.50;;;;;;;;;;5095848;28;20497;-68
2022/07/13 04:02:15;;;;;;;9.18;7.60;;;;;;;;;;5098993;28;20055;-68
2022/07/13 04:04:41;;;;;;;11.25;7.90;;;;;;;;;;5098701;28;20047;-68
2022/07/13 04:07:07;;;;;;;14.30;8.55;;;;;;;;;;5097612;28;20043;-68
2022/07/13 04:09:33;;;;;;;10.35;7.75;;;;;;;;;;5087097;28;20040;-68
2022/07/13 04:11:59;;;;;;;9.70;7.45;;;;;;;;;;5086207;28;20035;-68
2022/07/13 04:14:26;;;;;;;9.50;7.28;;;;;;;;;;5096731;28;20523;-68
2022/07/13 04:16:54;;;;;;;10.65;7.40;;;;;;;;;;5094431;28;20035;-68
2022/07/13 04:19:22;;;;;;;9.40;8.00;;;;;;;;;;5092807;28;20102;-68
2022/07/13 04:21:48;;;;;;;13.50;7.15;;;;;;;;;;5093364;28;20089;-68
2022/07/13 04:24:16;;;;;;;10.82;8.05;;;;;;;;;;5084955;28;20044;-70
2022/07/13 04:26:42;;;;;;;8.63;7.43;;;;;;;;;;5094821;28;20062;-68
2022/07/13 04:29:09;;;;;;;11.18;7.75;;;;;;;;;;5096088;28;20086;-69
2022/07/13 04:31:35;;;;;;;11.75;7.95;;;;;;;;;;5095349;28;20098;-68
2022/07/13 04:34:01;;;;;;;9.85;7.97;;;;;;;;;;5103976;28;20047;-68
2022/07/13 04:36:27;;;;;;;9.77;7.40;;;;;;;;;;5090499;28;20447;-69
2022/07/13 04:38:53;;;;;;;12.95;9.88;;;;;;;;;;5096190;28;20050;-68
2022/07/13 04:41:19;;;;;;;12.15;8.95;;;;;;;;;;5070004;28;20095;-68
2022/07/13 04:43:45;;;;;;;8.55;7.60;;;;;;;;;;5111494;28;20040;-68
2022/07/13 04:46:12;;;;;;;10.18;8.57;;;;;;;;;;5097891;28;20507;-69
2022/07/13 04:48:39;;;;;;;12.60;8.18;;;;;;;;;;5073778;28;20538;-69
2022/07/13 04:51:05;;;;;;;13.85;10.27;;;;;;;;;;5089048;28;20115;-68
2022/07/13 04:53:31;;;;;;;15.50;8.85;;;;;;;;;;5085568;28;20551;-69
2022/07/13 04:55:58;;;;;;;14.45;10.43;;;;;;;;;;5077584;28;20342;-69
2022/07/13 04:58:24;;;;;;;11.68;9.25;;;;;;;;;;5101183;28;20040;-69
2022/07/13 05:00:50;;;;;;;10.80;9.35;;;;;;;;;;5091851;28;20032;-69
2022/07/13 05:03:16;;;;;;;15.98;9.13;;;;;;;;;;5105663;28;20443;-68
2022/07/13 05:05:42;;;;;;;10.15;7.70;;;;;;;;;;5089505;28;20421;-69
2022/07/13 05:08:08;;;;;;;13.02;8.95;;;;;;;;;;5091296;28;20050;-68
2022/07/13 05:10:34;;;;;;;12.73;9.80;;;;;;;;;;5085937;28;20446;-68
2022/07/13 05:13:01;;;;;;;11.98;10.00;;;;;;;;;;5106480;27;20047;-68
2022/07/13 05:15:27;;;;;;;14.68;9.38;;;;;;;;;;5092863;28;20059;-68
2022/07/13 05:17:53;;;;;;;12.00;9.52;;;;;;;;;;5072793;28;20036;-69
2022/07/13 05:20:19;;;;;;;12.85;8.02;;;;;;;;;;5106187;27;20651;-69
2022/07/13 05:22:45;;;;;;;12.77;8.52;;;;;;;;;;5103582;27;20040;-68
2022/07/13 05:25:11;;;;;;;10.23;8.38;;;;;;;;;;5108309;28;20044;-68
2022/07/13 05:27:37;;;;;;;11.00;8.00;;;;;;;;;;5087610;28;20043;-68
2022/07/13 05:30:04;;;;;;;12.15;8.95;;;;;;;;;;5106278;28;20040;-69
2022/07/13 05:32:30;;;;;;;10.77;8.27;;;;;;;;;;5074259;28;20119;-68
2022/07/13 05:34:56;;;;;;;9.85;7.65;;;;;;;;;;5086677;28;20496;-68
2022/07/13 05:37:22;;;;;;;9.38;7.38;;;;;;;;;;5085641;28;20040;-68
2022/07/13 05:39:48;;;;;;;7.68;5.60;;;;;;;;;;5082069;28;20071;-68
2022/07/13 05:42:15;;;;;;;8.95;5.88;;;;;;;;;;5099769;27;20855;-68
2022/07/13 05:44:41;;;;;;;10.73;6.90;;;;;;;;;;5087926;28;20305;-68
2022/07/13 05:47:07;;;;;;;9.50;5.97;;;;;;;;;;5098725;28;20051;-69
2022/07/13 05:49:33;;;;;;;9.48;6.78;;;;;;;;;;5100818;27;20545;-68
2022/07/13 05:52:00;;;;;;;10.65;6.13;;;;;;;;;;5106601;27;20097;-69
2022/07/13 05:54:26;;;;;;;10.38;5.70;;;;;;;;;;5091103;28;20366;-68
2022/07/13 05:56:52;;;;;;;11.57;5.93;;;;;;;;;;5099509;28;20042;-69
2022/07/13 05:59:19;;;;;;;7.57;4.75;;;;;;;;;;5096060;28;20078;-68
2022/07/13 06:01:45;;;;;;;9.38;5.60;;;;;;;;;;5097038;28;20123;-68
2022/07/13 06:04:11;;;;;;;8.43;5.50;;;;;;;;;;5096477;28;20043;-69
2022/07/13 06:06:37;;;;;;;10.38;5.43;;;;;;;;;;5089168;28;20042;-69
2022/07/13 06:09:03;;;;;;;8.48;6.15;;;;;;;;;;5088719;28;20040;-69
2022/07/13 06:11:29;;;;;;;10.55;7.28;;;;;;;;;;5102126;27;20048;-69
2022/07/13 06:13:55;;;;;;;12.50;6.70;;;;;;;;;;5075331;28;20047;-68
2022/07/13 06:16:22;;;;;;;7.60;6.28;;;;;;;;;;5089643;28;20036;-68
2022/07/13 06:18:48;;;;;;;11.48;7.57;;;;;;;;;;5088113;28;20076;-68
2022/07/13 06:21:14;;;;;;;13.90;7.55;;;;;;;;;;5091257;28;20040;-68
2022/07/13 06:23:41;;;;;;;14.35;7.53;;;;;;;;;;5091488;28;20044;-68
2022/07/13 06:26:07;;;;;;;10.93;7.70;;;;;;;;;;5090941;28;20051;-68
2022/07/13 06:28:33;;;;;;;12.73;8.05;;;;;;;;;;5101324;28;20048;-68
2022/07/13 06:30:59;;;;;;;11.82;7.70;;;;;;;;;;5089490;28;20078;-68
2022/07/13 06:33:26;;;;;;;11.88;8.02;;;;;;;;;;5101235;27;20048;-69
2022/07/13 06:35:52;;;;;;;15.75;8.77;;;;;;;;;;5102334;27;20044;-68
2022/07/13 06:38:18;;;;;;;11.40;9.32;;;;;;;;;;5089396;28;20047;-69
2022/07/13 06:40:47;;;;;;;12.20;8.45;;;;;;;;;;5086780;28;20040;-69
2022/07/13 06:43:13;;;;;;;10.07;8.75;;;;;;;;;;5104038;28;20044;-68
2022/07/13 06:45:40;;;;;;;13.27;9.52;;;;;;;;;;5086782;28;20116;-69
2022/07/13 06:48:06;;;;;;;18.30;10.27;;;;;;;;;;5083320;28;20081;-68
2022/07/13 06:50:32;;;;;;;12.93;9.63;;;;;;;;;;5083495;28;20504;-68
2022/07/13 06:52:58;;;;;;;14.60;8.93;;;;;;;;;;5084495;28;20425;-69
2022/07/13 06:55:24;;;;;;;15.60;10.13;;;;;;;;;;5088060;28;20050;-69
2022/07/13 06:57:51;;;;;;;13.52;9.45;;;;;;;;;;5088386;28;20043;-69
2022/07/13 07:00:17;;;;;;;11.30;8.70;;;;;;;;;;5083710;28;20044;-68
2022/07/13 07:02:43;;;;;;;12.45;8.68;;;;;;;;;;5084277;28;20133;-69
2022/07/13 07:05:10;;;;;;;10.90;8.30;;;;;;;;;;5069957;28;20093;-69
2022/07/13 07:07:40;;;;;;;13.10;8.55;;;;;;;;;;5086058;28;20044;-68
2022/07/13 07:10:07;;;;;;;15.00;9.43;;;;;;;;;;5084721;28;20593;-69
2022/07/13 07:12:33;;;;;;;13.95;8.55;;;;;;;;;;5084066;28;20385;-69
2022/07/13 07:14:59;;;;;;;12.18;9.23;;;;;;;;;;5084499;28;20282;-68
2022/07/13 07:17:25;;;;;;;10.63;8.75;;;;;;;;;;5081120;28;20144;-68
2022/07/13 07:19:52;;;;;;;9.35;7.63;;;;;;;;;;5080911;28;20044;-68
2022/07/13 07:22:18;;;;;;;10.75;7.53;;;;;;;;;;5099458;27;20497;-69
2022/07/13 07:24:44;;;;;;;13.70;7.63;;;;;;;;;;5097385;28;20036;-69
2022/07/13 07:27:10;;;;;;;9.60;7.88;;;;;;;;;;5089019;28;20044;-69
2022/07/13 07:29:37;;;;;;;9.38;6.90;;;;;;;;;;5079043;28;20119;-68
2022/07/13 07:32:03;;;;;;;14.85;7.38;;;;;;;;;;5086409;28;20055;-69
2022/07/13 07:34:30;;;;;;;8.98;6.93;;;;;;;;;;5083393;28;20055;-69
2022/07/13 07:36:56;;;;;;;10.35;8.57;;;;;;;;;;5088715;28;20036;-68
2022/07/13 07:39:22;;;;;;;13.75;6.90;;;;;;;;;;5086463;28;20052;-69
2022/07/13 07:41:50;;;;;;;9.07;5.95;;;;;;;;;;5096784;27;20044;-69
2022/07/13 07:44:18;;;;;;;9.82;7.32;;;;;;;;;;5085288;28;20135;-69
2022/07/13 07:46:44;;;;;;;8.48;7.13;;;;;;;;;;5085502;28;20574;-68
2022/07/13 07:49:11;;;;;;;8.60;6.07;;;;;;;;;;5083714;28;20043;-69
2022/07/13 07:51:37;;;;;;;10.68;7.20;;;;;;;;;;5084903;28;20146;-68
2022/07/13 07:54:04;;;;;;;10.93;6.82;;;;;;;;;;5084996;28;20062;-68
2022/07/13 07:56:30;;;;;;;11.52;7.55;;;;;;;;;;5089891;28;20036;-69
2022/07/13 07:58:56;;;;;;;11.07;7.43;;;;;;;;;;5078032;28;20039;-69
2022/07/13 08:01:23;;;;;;;8.32;5.57;;;;;;;;;;5088514;28;20076;-70
2022/07/13 08:03:49;;;;;;;10.45;6.68;;;;;;;;;;5090733;28;20130;-68
2022/07/13 08:06:16;;;;;;;9.10;5.35;;;21.90;99.90;;;;;;5085631;28;20266;-69
2022/07/13 08:08:42;;;;;;;9.02;5.75;;;;;;;;;;5091020;28;20043;-69
2022/07/13 08:11:10;;;;;;;13.98;6.07;;;;;;;;;;5068849;28;20043;-69
2022/07/13 08:13:36;;;;;;;5.93;4.53;;;;;;;;;;5089810;28;20040;-69
2022/07/13 08:16:03;;;;;;;9.07;5.32;;;;;;;;;;5095381;28;20048;-68
2022/07/13 08:18:29;;;;;;;9.88;5.75;;;;;;;;;;5073055;28;20047;-69
2022/07/13 08:20:55;;;;;;;9.95;5.55;;;;;;;;;;5082125;28;20044;-69
2022/07/13 08:26:06;;;;;;;6.53;4.38;;;;;;;;;;5082467;28;20048;-68
2022/07/13 08:28:32;;;;;;;7.45;4.55;;;;;;;;;;5083163;28;20309;-69
2022/07/13 08:30:59;;;;;;;7.28;3.92;;;;;;;;;;5085603;28;20509;-69
2022/07/13 08:38:54;;;;;;;4.28;3.55;;;;;;;;;;5089958;28;20043;-69
2022/07/13 08:41:21;;;;;;;8.27;4.10;;;;;;;;;;5094560;28;20432;-69
2022/07/13 08:43:46;;;;;;;4.35;3.45;;;22.60;99.90;;;;;;5090409;28;20035;-69
2022/07/13 08:46:12;;;;;;;5.45;3.25;;;23.20;99.90;;;;;;5090308;28;20040;-69
2022/07/13 08:48:41;;;;;;;4.53;2.95;;;23.20;99.90;;;;;;5091557;28;20051;-69
2022/07/13 08:51:07;;;;;;;5.85;4.00;;;23.20;99.90;;;;;;5087424;28;20055;-69
2022/07/13 08:53:34;;;;;;;5.20;3.97;;;23.30;99.90;;;;;;5090739;28;20039;-70
2022/07/13 08:56:00;;;;;;;6.47;3.65;;;23.40;99.90;;;;;;5087448;28;20040;-69
2022/07/13 08:58:26;;;;;;;5.43;3.25;;;23.50;99.90;;;;;;5090879;28;20048;-69
2022/07/13 09:00:52;;;;;;;4.85;3.30;;;;;;;;;;5087879;28;20031;-69
2022/07/13 09:03:19;;;;;;;3.83;2.80;;;;;;;;;;5087537;28;20047;-69
2022/07/13 09:05:45;;;;;;;5.10;3.17;;;;;;;;;;5069738;28;20032;-69
2022/07/13 09:08:12;;;;;;;4.60;3.58;;;;;;;;;;5088910;28;20071;-70
2022/07/13 09:10:58;;;;;;;5.35;3.75;;;;;;;;;;5089107;28;20036;-69
2022/07/13 09:13:41;;;;;;;7.03;3.17;;;;;;;;;;5084713;28;20071;-69
2022/07/13 09:16:13;;;;;;;7.35;4.07;;;;;;;;;;5085021;28;20079;-69
2022/07/13 09:18:40;;;;;;;7.78;3.78;;;;;;;;;;5079120;28;20072;-69
2022/07/13 09:21:07;;;;;;;5.63;4.15;;;;;;;;;;5088947;28;20052;-69
2022/07/13 09:23:33;;;;;;;5.97;4.32;;;;;;;;;;5068793;28;20063;-70
2022/07/13 09:25:59;;;;;;;7.55;4.45;;;;;;;;;;5090633;28;20413;-69
2022/07/13 09:28:25;;;;;;;6.15;4.80;;;;;;;;;;5086850;28;20119;-69
2022/07/13 09:30:52;;;;;;;5.82;4.25;;;;;;;;;;5086373;28;20047;-70
2022/07/13 09:33:34;;;;;;;8.70;4.35;;;;;;;;;;5088052;28;20040;-69
2022/07/13 09:36:08;;;;;;;13.15;4.97;;;;;;;;;;5099933;27;20382;-69
2022/07/13 09:38:36;;;;;;;8.32;4.60;;;;;;;;;;5081979;28;20051;-69
2022/07/13 09:41:16;;;;;;;7.30;3.72;;;;;;;;;;5089325;28;20134;-69
2022/07/13 09:46:50;;;;;;;6.82;3.90;;;;;;;;;;5090508;28;20487;-69
2022/07/13 09:49:17;;;;;;;6.93;3.95;;;;;;;;;;5107527;27;20057;-69
2022/07/13 09:51:46;;;;;;;7.88;3.30;;;;;;;;;;5085182;28;20146;-69
2022/07/13 09:54:13;;;;;;;6.88;3.85;;;;;;;;;;5104878;27;20044;-69
2022/07/13 09:56:44;;;;;;;7.97;4.50;;;;;;;;;;5092012;28;20149;-70
2022/07/13 09:59:12;;;;;;;7.75;5.18;;;;;;;;;;5082723;28;20047;-69
2022/07/13 10:01:38;;;;;;;8.57;4.15;;;;;;;;;;5055580;28;20066;-69
2022/07/13 10:04:05;;;;;;;5.47;4.15;;;;;;;;;;5105215;27;20047;-69
2022/07/13 10:06:31;;;;;;;5.93;2.95;;;;;;;;;;5088742;28;20035;-69
2022/07/13 10:08:59;;;;;;;8.40;3.67;;;;;;;;;;5066756;28;20064;-69
2022/07/13 10:11:25;;;;;;;7.22;3.38;;;;;;;;;;5071756;28;20421;-69
2022/07/13 10:13:53;;;;;;;7.05;3.72;;;;;;;;;;5087761;28;20083;-69
2022/07/13 10:16:19;;;;;;;4.28;2.97;;;;;;;;;;5084109;28;20052;-69
2022/07/13 10:18:45;;;;;;;6.00;3.22;;;;;;;;;;5088684;28;20409;-69
2022/07/13 10:21:34;;;;;;;6.25;2.88;;;;;;;;;;5081793;28;20442;-70
2022/07/13 10:24:01;;;;;;;3.60;2.42;;;;;;;;;;5064665;28;20101;-69
2022/07/13 10:26:31;;;;;;;3.88;2.90;;;;;;;;;;5088757;28;20036;-69
2022/07/13 10:29:08;;;;;;;3.85;2.80;;;;;;;;;;5089028;28;20825;-69
2022/07/13 10:31:36;;;;;;;3.92;2.30;;;;;;;;;;5087269;28;20063;-69
2022/07/13 10:34:03;;;;;;;4.05;2.95;;;;;;;;;;5088491;28;20481;-69
2022/07/13 10:36:51;;;;;;;3.05;2.38;;;;;;;;;;5081281;28;20040;-69
2022/07/13 10:39:19;;;;;;;3.42;2.30;;;;;;;;;;5087444;28;20447;-70
2022/07/13 10:41:57;;;;;;;3.78;2.30;;;;;;;;;;5099643;27;20059;-69
2022/07/13 10:44:33;;;;;;;4.57;2.10;;;;;;;;;;5080113;28;20032;-69
2022/07/13 10:46:59;;;;;;;3.85;2.00;;;;;;;;;;5084957;28;20032;-69
2022/07/13 10:49:32;;;;;;;3.88;2.13;;;;;;;;;;5089333;28;20278;-69
2022/07/13 10:52:16;;;;;;;3.25;1.98;;;;;;;;;;5087722;28;20296;-69
2022/07/13 10:55:03;;;;;;;7.00;2.10;;;;;;;;;;5084267;28;20563;-69
2022/07/13 10:57:29;;;;;;;3.63;2.78;;;;;;;;;;5102707;28;20435;-69
2022/07/13 11:00:03;;;;;;;4.68;2.25;;;;;;;;;;5084880;28;20032;-69
2022/07/13 11:02:47;;;;;;;8.07;2.63;;;;;;;;;;5089506;28;20494;-70
2022/07/13 11:05:14;;;;;;;2.92;2.05;;;;;;;;;;5081399;28;20485;-69
2022/07/13 11:07:44;;;;;;;3.45;1.90;;;;;;;;;;5085600;28;20110;-69
2022/07/13 11:10:18;;;;;;;5.07;2.95;;;;;;;;;;5101391;27;20048;-70
2022/07/13 11:13:03;;;;;;;2.85;2.25;;;;;;;;;;5087098;28;20052;-70
2022/07/13 11:15:43;;;;;;;4.50;2.30;;;;;;;;;;5092033;28;20151;-69
2022/07/13 11:18:29;;;;;;;4.78;2.72;;;;;;;;;;5087730;28;20035;-70
2022/07/13 11:21:16;;;;;;;5.18;3.05;;;;;;;;;;5084532;28;20071;-70
2022/07/13 11:26:36;;;;;;;3.10;2.40;;;;;;;;;;5087282;28;20044;-70
2022/07/13 11:29:21;;;;;;;9.82;3.70;;;;;;;;;;5088435;28;20062;-69
2022/07/13 11:31:54;;;;;;;4.85;3.25;;;;;;;;;;5087201;28;20036;-69
2022/07/13 11:34:20;;;;;;;8.85;3.72;;;;;;;;;;5087962;28;20050;-69
2022/07/13 11:36:47;;;;;;;5.45;3.15;;;;;;;;;;5081157;28;20392;-69
2022/07/13 11:39:23;;;;;;;4.18;2.70;;;;;;;;;;5084007;28;20507;-70
2022/07/13 11:41:53;;;;;;;4.88;3.15;;;;;;;;;;5086515;28;20047;-70
2022/07/13 11:44:22;;;;;;;4.85;3.33;;;;;;;;;;5090618;28;20040;-69
2022/07/13 11:46:49;;;;;;;7.30;3.72;;;;;;;;;;5084359;28;20508;-70
2022/07/13 11:49:15;;;;;;;5.57;2.70;;;;;;;;;;5084006;28;20052;-70
2022/07/13 11:51:43;;;;;;;6.63;3.05;;;;;;;;;;5088056;28;20039;-70
2022/07/13 11:54:11;;;;;;;5.57;3.30;;;;;;;;;;5103351;27;20191;-70
2022/07/13 11:56:48;;;;;;;5.15;2.70;;;;;;;;;;5103075;28;20043;-69
2022/07/13 11:59:15;;;;;;;5.88;2.90;;;;;;;;;;5055529;28;20082;-69
2022/07/13 12:01:54;;;;;;;6.97;3.13;;;;;;;;;;5089112;28;20090;-69
2022/07/13 12:04:25;;;;;;;5.13;3.38;;;;;;;;;;5095924;28;20052;-69
2022/07/13 12:06:52;;;;;;;8.63;3.75;;;;;;;;;;5098700;28;20039;-69
2022/07/13 12:09:19;;;;;;;9.20;3.10;;;;;;;;;;5080687;28;20798;-70
2022/07/13 12:11:45;;;;;;;5.07;2.72;;;;;;;;;;5074615;28;20393;-70
2022/07/13 12:14:12;;;;;;;5.50;3.83;;;;;;;;;;5090789;28;20568;-69
2022/07/13 12:16:38;;;;;;;7.70;3.70;;;;;;;;;;5102893;27;20040;-70
2022/07/13 12:19:10;;;;;;;4.75;3.35;;;;;;;;;;5097575;28;20047;-69
2022/07/13 12:21:39;;;;;;;6.18;3.47;;;;;;;;;;5095644;28;20048;-70
2022/07/13 12:24:05;;;;;;;5.43;3.47;;;;;;;;;;5095908;28;20097;-70
2022/07/13 12:26:31;;;;;;;8.80;3.42;;;;;;;;;;5098435;28;20043;-69
2022/07/13 12:28:58;;;;;;;7.22;3.78;;;;;;;;;;5093344;28;20119;-70
2022/07/13 12:31:24;;;;;;;8.70;4.28;;;;;;;;;;5100000;28;20036;-69
2022/07/13 12:33:51;;;;;;;9.68;4.10;;;;;;;;;;5097057;28;20040;-70
2022/07/13 12:36:19;;;;;;;9.27;2.95;;;;;;;;;;5076900;28;20296;-69
2022/07/13 12:38:56;;;;;;;10.63;4.07;;;;;;;;;;5100398;28;20044;-70
2022/07/13 12:41:27;;;;;;;5.85;2.95;;;;;;;;;;5090405;28;20201;-69
2022/07/13 12:43:58;;;;;;;3.80;2.80;;;;;;;;;;5099208;28;20043;-70
2022/07/13 12:46:24;;;;;;;5.22;3.35;;;;;;;;;;5091181;28;20132;-69
2022/07/13 12:49:00;;;;;;;5.15;2.60;;;;;;;;;;5072303;28;20067;-69
2022/07/13 12:51:43;;;;;;;8.25;3.50;;;;;;;;;;5089634;28;20114;-69
2022/07/13 12:54:10;;;;;;;4.53;2.83;;;;;;;;;;5089717;28;20039;-69
2022/07/13 12:56:46;;;;;;;9.18;3.08;;;;;;;;;;5064470;28;20508;-69
2022/07/13 12:59:15;;;;;;;6.00;2.88;;;;;;;;;;5090842;28;20159;-70
2022/07/13 13:01:42;;;;;;;9.45;3.35;;;;;;;;;;5082818;28;20041;-70
2022/07/13 13:04:11;;;;;;;7.15;2.95;;;;;;;;;;5104011;27;20033;-69
2022/07/13 13:06:38;;;;;;;5.25;2.30;;;;;;;;;;5106730;28;20122;-69
2022/07/13 13:09:09;;;;;;;5.70;3.75;;;;;;;;;;5096243;28;20116;-69
2022/07/13 13:11:35;;;;;;;7.78;3.15;;;;;;;;;;5079044;28;20040;-69
2022/07/13 13:14:02;;;;;;;9.25;3.20;;;;;;;;;;5095242;28;20423;-70
2022/07/13 13:16:28;;;;;;;6.55;3.22;;;;;;;;;;5057659;28;20371;-68
2022/07/13 13:18:54;;;;;;;8.20;2.33;;;;;;;;;;5104404;27;20048;-70
2022/07/13 13:21:20;;;;;;;11.55;3.47;;;;;;;;;;5060539;28;20134;-70
2022/07/13 13:23:46;;;;;;;5.75;2.40;;;;;;;;;;5091012;28;20093;-69
2022/07/13 13:26:12;;;;;;;5.03;2.45;;;23.70;99.90;;;;;;5085293;28;20440;-69
2022/07/13 13:31:23;;;;;;;6.18;2.38;;;24.70;96.50;;;;;;5106068;27;20047;-70
2022/07/13 13:33:48;;;;;;;4.45;2.25;;;24.70;96.60;;;;;;5098836;28;20035;-69
2022/07/13 13:36:15;;;;;;;5.70;2.28;;;24.80;96.60;;;;;;5088113;28;20531;-68
2022/07/13 13:38:40;;;;;;;5.82;2.80;;;24.70;96.40;;;;;;5107785;27;20070;-69
2022/07/13 13:41:06;;;;;;;5.80;1.73;;;24.80;96.40;;;;;;5092656;28;20529;-70
2022/07/13 13:43:32;;;;;;;5.20;2.35;;;24.80;96.30;;;;;;5103350;27;20044;-69
2022/07/13 13:45:59;;;;;;;4.75;2.60;;;;;;;;;;5099534;28;20772;-69
2022/07/13 13:48:25;;;;;;;8.18;3.15;;;;;;;;;;5092838;28;20456;-68
2022/07/13 13:50:52;;;;;;;8.52;2.83;;;;;;;;;;5092594;28;20150;-69
2022/07/13 13:53:18;;;;;;;6.80;2.60;;;;;;;;;;5089808;28;20169;-68
2022/07/13 13:55:44;;;;;;;13.20;3.55;;;;;;;;;;5097450;28;20040;-68
2022/07/13 13:58:10;;;;;;;6.80;2.55;;;;;;;;;;5091278;28;20081;-69
2022/07/13 14:00:37;;;;;;;3.78;2.20;;;;;;;;;;5094768;28;20110;-68
2022/07/13 14:03:03;;;;;;;10.50;3.15;;;;;;;;;;5089809;28;20044;-68
2022/07/13 14:05:30;;;;;;;6.30;2.40;;;;;;;;;;5097264;28;20068;-68
2022/07/13 14:07:57;;;;;;;13.18;3.08;;;;;;;;;;5091527;28;20073;-68
2022/07/13 14:10:24;;;;;;;8.30;2.60;;;;;;;;;;5098825;28;20043;-68
2022/07/13 14:12:50;;;;;;;8.48;2.55;;;;;;;;;;5093664;27;20037;-68
2022/07/13 14:15:17;;;;;;;7.60;2.53;;;;;;;;;;5096681;28;20127;-69
2022/07/13 14:17:43;;;;;;;13.02;2.90;;;;;;;;;;5096327;28;20078;-68
2022/07/13 14:20:09;;;;;;;11.38;2.85;;;;;;;;;;5092301;28;20401;-68
2022/07/13 14:22:36;;;;;;;12.18;3.97;;;;;;;;;;5094133;28;20044;-69
2022/07/13 14:25:02;;;;;;;14.88;3.65;;;;;;;;;;5091571;28;20032;-69
2022/07/13 14:27:29;;;;;;;12.23;3.63;;;;;;;;;;5079890;28;20047;-68
2022/07/13 14:29:55;;;;;;;10.90;3.17;;;;;;;;;;5093043;28;20043;-69
2022/07/13 14:32:22;;;;;;;7.40;3.28;;;;;;;;;;5096691;28;20040;-68
2022/07/13 14:34:48;;;;;;;10.05;3.65;;;;;;;;;;5100089;27;20321;-68
2022/07/13 14:37:18;;;;;;;10.52;4.13;;;;;;;;;;5091640;28;20075;-68
2022/07/13 14:39:45;;;;;;;12.35;3.95;;;;;;;;;;5091159;28;20075;-68
2022/07/13 14:42:11;;;;;;;12.48;3.72;;;;;;;;;;5095133;28;20671;-69
2022/07/13 14:44:37;;;;;;;10.57;3.22;;;24.80;96.00;;;;;;5095895;28;20044;-69
2022/07/13 14:47:04;;;;;;;9.75;3.78;;;;;;;;;;5091215;28;20036;-68